Time;durP1;ratioP1;P1;durP2;ratioP2;P2;SDS_P1;SDS_P2;PMS_P1;PMS_P2;Temp;Humidity;BMP_temperature;BMP_pressure;BME280_temperature;BME280_humidity;BME280_pressure;Samples;Min_cycle;Max_cycle;Signal;HPM_P1;HPM_P2
2022/08/01 00:02:15;;;;;;;4.00;3.60;;;;;;;28.22;47.32;100185.86;1751102;80;21086;-81
2022/08/01 00:04:41;;;;;;;3.90;3.60;;;;;;;28.23;47.31;100190.86;1752301;80;21116;-81
2022/08/01 00:07:08;;;;;;;6.30;4.28;;;;;;;28.22;47.29;100184.45;1753525;80;21081;-81
2022/08/01 00:09:34;;;;;;;4.08;3.65;;;;;;;28.23;47.30;100185.27;1753843;80;21080;-81
2022/08/01 00:12:01;;;;;;;4.65;3.98;;;;;;;28.22;47.29;100185.86;1753671;80;21104;-81
2022/08/01 00:14:28;;;;;;;4.40;4.00;;;;;;;28.23;47.30;100190.86;1753569;80;21065;-81
2022/08/01 00:17:01;;;;;;;6.58;3.60;;;;;;;28.22;47.31;100181.66;1753540;81;21205;-81
2022/08/01 00:19:27;;;;;;;3.52;3.20;;;;;;;28.22;47.30;100182.28;1753553;80;20978;-81
2022/08/01 00:21:54;;;;;;;3.77;3.42;;;;;;;28.23;47.31;100190.86;1753563;80;21069;-81
2022/08/01 00:24:20;;;;;;;3.65;3.35;;;;;;;28.22;47.34;100184.45;1753654;81;21021;-81
2022/08/01 00:26:47;;;;;;;4.37;3.67;;;;;;;28.21;47.35;100182.87;1753896;80;21578;-81
2022/08/01 00:29:19;;;;;;;3.62;3.33;;;;;;;28.21;47.35;100191.27;1753568;80;21282;-81
2022/08/01 00:31:45;;;;;;;4.20;3.62;;;;;;;28.21;47.36;100192.67;1712477;82;21045;-81
2022/08/01 00:34:12;;;;;;;4.72;4.03;;;;;;;28.21;47.38;100192.67;1722049;81;21501;-81
2022/08/01 00:36:38;;;;;;;4.05;3.65;;;;;;;28.21;47.41;100178.68;1721826;82;21297;-81
2022/08/01 00:39:05;;;;;;;4.47;4.03;;;;;;;28.22;47.36;100180.89;1722275;81;21034;-81
2022/08/01 00:41:31;;;;;;;4.50;3.87;;;;;;;28.21;47.39;100177.28;1722435;81;21623;-81
2022/08/01 00:43:58;;;;;;;4.78;3.70;;;;;;;28.21;47.39;100173.09;1722140;81;20994;-81
2022/08/01 00:46:24;;;;;;;4.10;3.70;;;;;;;28.21;47.42;100169.48;1722280;81;21062;-81
2022/08/01 00:48:51;;;;;;;4.10;3.70;;;;;;;28.21;47.44;100163.30;1722306;81;21061;-81
2022/08/01 00:51:17;;;;;;;5.35;3.85;;;;;;;28.21;47.43;100162.48;1722202;81;21089;-81
2022/08/01 00:53:44;;;;;;;3.98;3.58;;;;;;;28.21;47.44;100169.48;1722425;81;21069;-81
2022/08/01 00:56:16;;;;;;;4.25;3.85;;;;;;;28.20;47.44;100163.67;1722445;81;21376;-81
2022/08/01 00:58:43;;;;;;;4.10;3.55;;;;;;;28.21;47.46;100165.28;1722157;81;21117;-81
2022/08/01 01:01:10;;;;;;;4.22;3.83;;;;;;;28.20;47.46;100172.87;1722463;82;21560;-81
2022/08/01 01:03:36;;;;;;;4.35;3.95;;;;;;;28.20;47.45;100174.27;1722414;81;21105;-81
2022/08/01 01:06:40;;;;;;;4.67;3.40;;;;;;;28.18;47.46;100166.84;1722050;81;21202;-80
2022/08/01 01:09:38;;;;;;;4.00;3.55;;;;;;;28.19;47.46;100169.05;1722229;81;21089;-81
2022/08/01 01:12:40;;;;;;;4.10;3.70;;;;;;;28.19;47.46;100167.65;1721978;81;21163;-81
2022/08/01 01:15:15;;;;;;;3.62;3.33;;;;;;;28.18;47.46;100168.23;1722457;81;21069;-81
2022/08/01 01:18:00;;;;;;;3.90;3.55;;;;;;;28.17;47.47;100171.44;1722091;82;21081;-81
2022/08/01 01:20:37;;;;;;;4.08;3.65;;;;;;;28.17;47.47;100168.64;1706982;81;21843;-81
2022/08/01 01:23:45;;;;;;;3.92;3.52;;;;;;;28.15;47.48;100167.03;1722085;81;21046;-81
2022/08/01 01:26:41;;;;;;;3.85;3.52;;;;;;;28.15;47.51;100172.63;1722409;81;21478;-81
2022/08/01 01:29:30;;;;;;;3.90;3.50;;;;;;;28.15;47.50;100171.81;1722228;81;21576;-81
2022/08/01 01:32:16;;;;;;;3.80;3.40;;;;;;;28.12;47.50;100160.81;1722561;81;21057;-81
2022/08/01 01:34:44;;;;;;;3.90;3.50;;;;;;;28.13;47.49;100161.00;1722436;82;22051;-81
2022/08/01 01:37:16;;;;;;;4.95;3.62;;;;;;;28.13;47.49;100166.59;1722688;81;21536;-80
2022/08/01 01:39:42;;;;;;;3.90;3.55;;;;;;;28.12;47.50;100165.01;1722715;81;21445;-81
2022/08/01 01:42:09;;;;;;;4.10;3.70;;;;;;;28.13;47.52;100167.21;1722413;81;21074;-81
2022/08/01 01:44:37;;;;;;;3.95;3.55;;;;;;;28.12;47.55;100168.39;1722774;82;21109;-81
2022/08/01 01:47:04;;;;;;;4.35;3.95;;;;;;;28.12;47.59;100172.59;1722742;82;21587;-80
2022/08/01 01:49:30;;;;;;;4.37;3.42;;;;;;;28.12;47.60;100175.39;1722446;81;21571;-80
2022/08/01 01:51:57;;;;;;;3.72;3.33;;;;;;;28.12;47.60;100163.61;1722612;81;21683;-81
2022/08/01 01:54:28;;;;;;;4.42;3.72;;;;;;;28.12;47.58;100165.01;1722384;81;21073;-81
2022/08/01 01:56:58;;;;;;;4.40;3.92;;;;;;;28.12;47.58;100162.21;1721012;81;21034;-80
2022/08/01 01:59:30;;;;;;;4.28;3.65;;;;;;;28.11;47.55;100154.20;1722824;82;21105;-81
2022/08/01 02:01:59;;;;;;;4.95;4.22;;;;;;;28.10;47.56;100149.19;1722795;82;21048;-81
2022/08/01 02:04:32;;;;;;;4.22;3.83;;;;;;;28.12;47.56;100148.81;1722395;82;21864;-81
2022/08/01 02:06:59;;;;;;;4.40;4.00;;;;;;;28.12;47.54;100148.23;1722615;81;21117;-80
2022/08/01 02:09:26;;;;;;;4.72;3.90;;;;;;;28.10;47.55;100153.39;1722643;82;21009;-80
2022/08/01 02:11:53;;;;;;;4.53;4.08;;;;;;;28.10;47.56;100146.39;1722513;81;22101;-81
2022/08/01 02:14:26;;;;;;;4.25;3.85;;;;;;;28.10;47.57;100144.19;1722793;82;21081;-81
2022/08/01 02:16:53;;;;;;;4.65;4.03;;;;;;;28.09;47.56;100140.58;1722855;81;21140;-81
2022/08/01 02:19:19;;;;;;;4.12;3.72;;;;;;;28.09;47.56;100148.97;1722459;81;21033;-81
2022/08/01 02:21:51;;;;;;;4.45;4.00;;;;;;;28.11;47.55;100141.61;1722706;82;21088;-81
2022/08/01 02:24:23;;;;;;;4.37;4.00;;;;;;;28.09;47.55;100141.98;1722601;81;21276;-81
2022/08/01 02:26:51;;;;;;;4.37;3.98;;;;;;;28.10;47.53;100151.98;1722547;81;21025;-81
2022/08/01 02:29:22;;;;;;;4.45;3.87;;;;;;;28.09;47.54;100139.19;1709489;82;21113;-80
2022/08/01 02:31:49;;;;;;;4.72;3.98;;;;;;;28.10;47.53;100144.99;1719724;81;21044;-81
2022/08/01 02:34:21;;;;;;;4.67;3.90;;;;;;;28.09;47.51;100146.17;1701955;82;21181;-81
2022/08/01 02:36:47;;;;;;;4.30;3.90;;;;;;;28.10;47.54;100139.99;1761852;80;21085;-81
2022/08/01 02:39:16;;;;;;;4.25;3.85;;;;;;;28.09;47.55;100140.58;1761811;80;21542;-80
2022/08/01 02:41:45;;;;;;;4.67;3.92;;;;;;;28.09;47.54;100134.18;1761567;81;21039;-80
2022/08/01 02:44:16;;;;;;;5.25;3.87;;;;;;;28.08;47.54;100126.97;1761875;80;21109;-80
2022/08/01 02:46:51;;;;;;;4.40;3.67;;;;;;;28.08;47.54;100131.98;1761946;80;22123;-81
2022/08/01 02:49:19;;;;;;;4.30;3.90;;;;;;;28.09;47.54;100134.18;1761624;81;22086;-80
2022/08/01 02:51:45;;;;;;;4.22;3.80;;;;;;;28.07;47.52;100131.76;1761630;80;21066;-80
2022/08/01 02:54:12;;;;;;;4.80;3.77;;;;;;;28.07;47.54;100130.36;1761597;80;21603;-80
2022/08/01 02:56:40;;;;;;;4.75;3.58;;;;;;;28.07;47.52;100126.17;1761743;80;21049;-80
2022/08/01 02:59:14;;;;;;;5.00;4.17;;;;;;;28.07;47.55;100130.36;1762003;80;21780;-81
2022/08/01 03:01:40;;;;;;;4.97;3.67;;;;;;;28.07;47.54;100131.76;1761680;81;22064;-81
2022/08/01 03:04:07;;;;;;;4.17;3.77;;;;;;;28.07;47.52;100131.76;1761578;80;21048;-80
2022/08/01 03:06:33;;;;;;;4.33;3.92;;;;;;;28.06;47.51;100130.14;1761827;80;21065;-81
2022/08/01 03:09:01;;;;;;;4.03;3.62;;;;;;;28.07;47.51;100130.95;1761890;80;21096;-80
2022/08/01 03:11:28;;;;;;;4.53;3.65;;;;;;;28.06;47.52;100123.16;1761712;80;21072;-80
2022/08/01 03:13:55;;;;;;;4.50;3.77;;;;;;;28.07;47.51;100128.97;1761866;80;21139;-80
2022/08/01 03:16:22;;;;;;;4.33;3.92;;;;;;;28.06;47.52;100125.95;1761772;80;21076;-81
2022/08/01 03:18:49;;;;;;;3.92;3.52;;;;;;;28.07;47.50;100129.55;1761823;81;21076;-80
2022/08/01 03:21:16;;;;;;;5.62;4.10;;;;;;;28.06;47.51;100123.16;1736501;81;21096;-80
2022/08/01 03:23:42;;;;;;;4.25;3.77;;;;;;;28.06;47.47;100130.14;1761972;80;21085;-80
2022/08/01 03:26:09;;;;;;;4.22;3.70;;;;;;;28.06;47.50;100129.34;1761576;80;21476;-80
2022/08/01 03:28:36;;;;;;;4.28;3.65;;;;;;;28.06;47.49;100134.34;1762059;80;21017;-80
2022/08/01 03:31:02;;;;;;;4.60;3.58;;;;;;;28.06;47.50;100132.13;1761801;80;21057;-80
2022/08/01 03:33:29;;;;;;;3.83;3.47;;;;;;;28.06;47.52;100139.93;1756255;80;21006;-80
2022/08/01 03:35:55;;;;;;;4.53;3.62;;;;;;;28.06;47.52;100137.73;1754111;80;21567;-80
2022/08/01 03:38:24;;;;;;;4.17;3.75;;;;;;;28.07;47.52;100137.94;1753938;80;21481;-80
2022/08/01 03:41:01;;;;;;;3.95;3.65;;;;;;;28.06;47.52;100135.73;1753707;80;21034;-80
2022/08/01 03:43:35;;;;;;;3.98;3.52;;;;;;;28.06;47.47;100151.12;1754224;81;21483;-80
2022/08/01 03:46:07;;;;;;;4.25;3.85;;;;;;;28.06;47.47;100153.11;1753918;80;21041;-81
2022/08/01 03:48:43;;;;;;;4.40;3.62;;;;;;;28.05;47.46;100143.91;1753843;80;21045;-81
2022/08/01 03:51:10;;;;;;;3.83;3.45;;;;;;;28.05;47.49;100142.52;1751108;81;21445;-81
2022/08/01 03:53:37;;;;;;;4.97;3.58;;;;;;;28.05;47.50;100149.50;1753916;81;21046;-81
2022/08/01 03:56:03;;;;;;;4.28;3.42;;;;;;;28.04;47.50;100147.92;1753975;80;21045;-80
2022/08/01 03:58:30;;;;;;;4.45;3.12;;;;;;;28.05;47.48;100148.73;1753850;80;22200;-80
2022/08/01 04:00:57;;;;;;;4.87;3.45;;;;;;;28.04;47.45;100150.72;1754177;80;21096;-80
2022/08/01 04:03:24;;;;;;;4.03;3.58;;;;;;;28.04;47.41;100142.33;1754114;80;21078;-80
2022/08/01 04:05:50;;;;;;;4.33;3.62;;;;;;;28.04;47.38;100147.92;1753660;80;21043;-80
2022/08/01 04:08:17;;;;;;;4.22;3.83;;;;;;;28.04;47.37;100150.72;1754006;80;21028;-80
2022/08/01 04:10:43;;;;;;;4.42;3.27;;;;;;;28.05;47.33;100157.11;1754083;80;21104;-80
2022/08/01 04:13:10;;;;;;;5.25;3.42;;;;;;;28.04;47.31;100156.30;1753788;80;21025;-80
2022/08/01 04:15:36;;;;;;;3.37;3.08;;;;;;;28.04;47.27;100159.69;1753778;80;21116;-80
2022/08/01 04:18:03;;;;;;;3.67;3.33;;;;;;;28.04;47.26;100147.92;1754045;80;21025;-80
2022/08/01 04:20:30;;;;;;;3.80;3.50;;;;;;;28.04;47.26;100145.71;1753798;80;20982;-80
2022/08/01 04:22:56;;;;;;;4.22;3.27;;;;;;;28.03;47.26;100132.32;1754156;80;21089;-80
2022/08/01 04:25:35;;;;;;;4.12;3.62;;;;;;;28.03;47.23;100146.30;1754094;80;21545;-80
2022/08/01 04:28:05;;;;;;;4.15;3.08;;;;;;;28.03;47.21;100143.51;1753873;81;21196;-80
2022/08/01 04:30:33;;;;;;;4.28;3.40;;;;;;;28.03;47.17;100144.91;1753926;80;21062;-81
2022/08/01 04:33:01;;;;;;;3.35;3.00;;;;;;;28.03;47.15;100141.30;1748766;80;21111;-80
2022/08/01 04:35:27;;;;;;;3.95;3.17;;;;;;;28.02;47.14;100136.30;1738378;82;21518;-80
2022/08/01 04:37:54;;;;;;;4.20;3.08;;;;;;;28.02;47.17;100127.10;1738473;81;21060;-80
2022/08/01 04:40:27;;;;;;;3.30;3.00;;;;;;;28.01;47.14;100129.68;1738347;81;21507;-80
2022/08/01 04:42:53;;;;;;;3.25;2.95;;;;;;;27.99;47.09;100131.48;1738302;81;20990;-80
2022/08/01 04:45:20;;;;;;;4.03;3.05;;;;;;;27.96;47.14;100125.86;1738574;81;21069;-81
2022/08/01 04:47:47;;;;;;;3.52;3.12;;;;;;;27.93;47.20;100131.61;1738474;81;21167;-80
2022/08/01 04:50:14;;;;;;;3.15;2.85;;;;;;;27.92;47.20;100139.00;1738246;81;21558;-80
2022/08/01 04:52:46;;;;;;;4.97;2.77;;;;;;;27.89;47.16;100134.96;1738329;81;21539;-80
2022/08/01 04:55:13;;;;;;;4.08;2.77;;;;;;;27.87;46.94;100133.75;1738583;81;21542;-80
2022/08/01 04:57:44;;;;;;;3.62;2.52;;;;;;;27.84;46.80;100136.70;1738267;81;21049;-80
2022/08/01 05:00:12;;;;;;;3.45;2.85;;;;;;;27.84;46.77;100146.48;1738646;81;21100;-81
2022/08/01 05:02:41;;;;;;;3.92;2.60;;;;;;;27.80;46.58;100138.66;1738547;81;21084;-81
2022/08/01 05:05:08;;;;;;;3.02;2.45;;;;;;;27.80;46.33;100142.84;1746196;80;21431;-80
2022/08/01 05:07:36;;;;;;;2.62;2.42;;;;;;;27.77;46.21;100142.81;1738577;81;21036;-80
2022/08/01 05:10:06;;;;;;;3.05;2.15;;;;;;;27.77;46.03;100145.61;1738441;81;21471;-80
2022/08/01 05:12:32;;;;;;;5.03;2.42;;;;;;;27.76;45.82;100142.59;1738580;81;21068;-81
2022/08/01 05:14:59;;;;;;;3.02;2.47;;;;;;;27.73;45.69;100146.97;1738598;81;21014;-81
2022/08/01 05:17:26;;;;;;;2.42;2.00;;;;;;;27.73;45.60;100139.98;1738433;81;21123;-80
2022/08/01 05:19:52;;;;;;;5.70;2.20;;;;;;;27.73;45.35;100143.36;1738101;81;21045;-80
2022/08/01 05:22:19;;;;;;;4.97;2.08;;;;;;;27.71;45.20;100140.34;1738163;81;21638;-80
2022/08/01 05:24:46;;;;;;;5.28;1.98;;;;;;;27.71;45.00;100142.34;1738234;81;21048;-80
2022/08/01 05:27:13;;;;;;;2.10;1.80;;;;;;;27.71;44.95;100149.33;1737769;81;21101;-80
2022/08/01 05:29:39;;;;;;;4.08;2.20;;;;;;;27.71;44.85;100143.14;1738363;81;21578;-81
2022/08/01 05:32:12;;;;;;;2.65;2.10;;;;;;;27.71;44.67;100142.34;1722303;82;21090;-81
2022/08/01 05:34:39;;;;;;;4.28;2.12;;;;;;;27.70;44.49;100137.95;1731174;81;21008;-81
2022/08/01 05:37:05;;;;;;;5.70;2.55;;;;;;;27.67;44.35;100140.91;1680684;84;21067;-81
2022/08/01 05:39:32;;;;;;;5.55;2.22;;;;;;;27.67;44.29;100145.09;1733397;81;21023;-81
2022/08/01 05:41:58;;;;;;;4.15;2.40;;;;;;;27.67;44.17;100145.09;1733976;81;21088;-81
2022/08/01 05:44:25;;;;;;;3.75;1.85;;;;;;;27.67;44.11;100147.08;1737318;80;21107;-81
2022/08/01 05:46:52;;;;;;;3.05;1.87;;;;;;;27.67;44.10;100150.69;1732482;81;21607;-80
2022/08/01 05:49:18;;;;;;;3.87;1.80;;;;;;;27.66;44.00;100144.91;1723339;80;21072;-80
2022/08/01 05:51:45;;;;;;;6.03;2.05;;;;;;;27.66;43.97;100150.50;1727024;80;21024;-80
2022/08/01 05:54:11;;;;;;;3.70;2.10;;;;;;;27.67;43.76;100149.88;1722774;81;21152;-80
2022/08/01 05:56:38;;;;;;;6.15;2.20;;;;;;;27.65;43.75;100153.66;1721422;83;21002;-80
2022/08/01 05:59:04;;;;;;;6.45;2.30;;;;;;;27.66;43.63;100156.67;1721811;82;21023;-80
2022/08/01 06:01:31;;;;;;;4.08;2.40;;;;;;;27.64;43.60;100153.45;1721369;82;21006;-80
2022/08/01 06:03:57;;;;;;;3.95;2.80;;;;;;;27.64;43.56;100150.65;1721321;81;21085;-81
2022/08/01 06:06:24;;;;;;;3.95;2.33;;;;;;;27.64;43.54;100152.05;1721296;83;21827;-80
2022/08/01 06:08:55;;;;;;;3.98;2.05;;;;;;;27.64;43.53;100150.65;1742239;82;20999;-81
2022/08/01 06:11:21;;;;;;;3.45;2.35;;;;;;;27.64;43.54;100152.86;1750149;80;21604;-81
2022/08/01 06:13:48;;;;;;;4.22;2.80;;;;;;;27.64;43.55;100150.65;1750250;81;21034;-81
2022/08/01 06:16:15;;;;;;;6.42;2.42;;;;;;;27.64;43.55;100148.66;1750429;81;21066;-80
2022/08/01 06:18:42;;;;;;;6.35;3.72;;;;;;;27.64;43.54;100152.05;1750521;80;21150;-81
2022/08/01 06:21:08;;;;;;;4.72;2.58;;;;;;;27.62;43.62;100146.86;1750997;80;21062;-81
2022/08/01 06:23:35;;;;;;;4.25;2.90;;;;;;;27.62;43.67;100156.64;1751060;80;21110;-81
2022/08/01 06:26:01;;;;;;;7.75;5.10;;;;;;;27.62;43.74;100158.03;1750756;80;21281;-81
2022/08/01 06:28:29;;;;;;;7.33;5.25;;;;;;;27.58;44.03;100150.80;1749536;81;21537;-82
2022/08/01 06:30:55;;;;;;;8.03;5.60;;;;;;;27.49;44.51;100153.08;1721384;82;21094;-81
2022/08/01 06:33:22;;;;;;;5.12;4.62;;;;;;;27.36;45.08;100151.08;1733014;81;21017;-81
2022/08/01 06:35:48;;;;;;;9.30;6.33;;;;;;;27.31;45.45;100158.98;1754646;81;21056;-81
2022/08/01 06:38:20;;;;;;;9.75;6.50;;;;;;;27.28;45.72;100161.95;1754188;81;21496;-81
2022/08/01 06:40:47;;;;;;;6.25;5.00;;;;;;;27.22;45.92;100167.05;1754040;81;21546;-80
2022/08/01 06:43:14;;;;;;;8.63;5.53;;;;;;;27.22;45.94;100166.24;1752262;81;21304;-81
2022/08/01 06:45:40;;;;;;;6.03;4.97;;;;;;;27.25;45.90;100173.86;1724329;82;21014;-81
2022/08/01 06:48:06;;;;;;;5.08;3.90;;;;;;;27.28;45.92;100166.73;1723931;83;21061;-81
2022/08/01 06:50:35;;;;;;;5.08;4.20;;;;;;;27.30;45.84;100162.36;1724192;83;21065;-81
2022/08/01 06:53:01;;;;;;;7.00;4.50;;;;;;;27.33;45.83;100165.78;1725162;81;21218;-81
2022/08/01 06:55:28;;;;;;;5.65;3.75;;;;;;;27.35;45.80;100162.03;1728666;81;21176;-81
2022/08/01 06:57:54;;;;;;;4.65;3.67;;;;;;;27.37;45.79;100162.45;1754056;81;20982;-81
2022/08/01 07:00:22;;;;;;;4.95;3.85;;;;;;;27.39;45.79;100160.68;1753648;81;21048;-81
2022/08/01 07:02:54;;;;;;;8.33;4.70;;;;;;;27.40;45.82;100158.11;1753068;81;21131;-81
2022/08/01 07:05:21;;;;;;;6.00;4.20;;;;;;;27.41;45.82;100159.73;1753714;81;21048;-81
2022/08/01 07:07:47;;;;;;;13.03;4.47;;;;;;;27.41;45.83;100161.93;1753571;81;21036;-81
2022/08/01 07:10:14;;;;;;;8.60;4.78;;;;;;;27.43;45.85;100162.92;1753136;81;21009;-81
2022/08/01 07:12:40;;;;;;;13.25;4.75;;;;;;;27.45;45.90;100159.98;1753939;81;22102;-81
2022/08/01 07:15:10;;;;;;;12.05;5.75;;;;;;;27.46;45.93;100164.95;1753335;81;21025;-81
2022/08/01 07:17:39;;;;;;;13.88;5.33;;;;;;;27.48;45.97;100163.44;1752154;81;21574;-81
2022/08/01 07:20:12;;;;;;;13.85;5.37;;;;;;;27.46;46.01;100166.34;1752309;81;21569;-81
2022/08/01 07:22:38;;;;;;;9.78;5.50;;;;;;;27.44;46.08;100161.75;1722868;82;21016;-81
2022/08/01 07:25:05;;;;;;;12.18;4.92;;;;;;;27.43;46.14;100159.55;1722979;83;21678;-80
2022/08/01 07:27:32;;;;;;;8.50;5.00;;;;;;;27.46;46.15;100160.77;1723519;82;21638;-81
2022/08/01 07:29:58;;;;;;;10.85;4.78;;;;;;;27.46;46.15;100162.97;1723516;83;21039;-81
2022/08/01 07:32:25;;;;;;;9.50;4.60;;;;;;;27.47;46.14;100167.41;1729511;80;21881;-82
2022/08/01 07:34:52;;;;;;;11.18;4.58;;;;;;;27.49;46.12;100168.44;1745187;80;21547;-81
2022/08/01 07:37:18;;;;;;;15.45;4.25;;;;;;;27.50;46.12;100164.44;1756102;80;22127;-81
2022/08/01 07:39:45;;;;;;;8.28;4.40;;;;;;;27.52;46.08;100167.67;1730607;81;21651;-81
2022/08/01 07:42:11;;;;;;;9.68;4.22;;;;;;;27.53;46.08;100170.09;1730902;81;21490;-81
2022/08/01 07:44:38;;;;;;;10.70;4.22;;;;;;;27.53;46.07;100165.09;1730857;81;21577;-81
2022/08/01 07:47:04;;;;;;;10.43;4.08;;;;;;;27.57;46.02;100170.13;1730597;81;21035;-81
2022/08/01 07:49:31;;;;;;;10.23;3.83;;;;;;;27.56;45.97;100162.34;1730799;81;21063;-81
2022/08/01 07:51:57;;;;;;;9.90;3.72;;;;;;;27.57;45.92;100169.55;1730712;81;20986;-81
2022/08/01 07:54:25;;;;;;;8.30;3.33;;;;;;;27.59;45.88;100169.15;1730919;81;21549;-81
2022/08/01 07:56:51;;;;;;;11.40;3.62;;;;;;;27.58;45.86;100175.33;1730917;81;21148;-80
2022/08/01 07:59:22;;;;;;;7.50;3.05;;;;;;;27.59;45.82;100172.75;1741513;81;21015;-81
2022/08/01 08:01:46;;;;;;;8.13;3.65;;;;;;;27.60;45.76;100172.97;1742729;80;20991;-81
2022/08/01 08:04:12;;;;;;;5.12;3.02;;;;;;;27.61;45.75;100173.77;1743872;80;21106;-81
2022/08/01 08:06:41;;;;;;;6.10;3.12;;;;;;;27.61;45.71;100168.19;1758492;80;21057;-81
2022/08/01 08:09:07;;;;;;;5.90;2.80;;;;;;;27.60;45.66;100168.78;1760433;80;21179;-80
2022/08/01 08:11:34;;;;;;;6.22;3.25;;;;;;;27.63;45.63;100168.59;1759739;80;21532;-81
2022/08/01 08:14:00;;;;;;;5.33;2.60;;;;;;;27.62;45.53;100174.80;1759953;81;21113;-80
2022/08/01 08:16:28;;;;;;;6.05;2.92;;;;;;;27.60;45.37;100172.97;1759809;81;21031;-80
2022/08/01 08:18:56;;;;;;;3.40;1.82;;;;;;;27.58;45.26;100174.55;1760350;80;21054;-80
2022/08/01 08:21:22;;;;;;;5.25;3.22;;;;;;;27.55;44.93;100175.28;1759708;80;21136;-81
2022/08/01 08:26:34;;;;;;;3.75;2.10;;;;;;;27.51;44.76;100176.64;1761275;80;21063;-81
2022/08/01 08:29:00;;;;;;;4.83;2.08;;;;;;;27.49;44.57;100176.23;1760604;81;21556;-81
2022/08/01 08:31:27;;;;;;;5.20;2.10;;;;;;;27.46;44.36;100189.52;1760976;81;21039;-81
2022/08/01 08:33:54;;;;;;;4.60;2.15;;;;;;;27.45;44.35;100187.12;1758025;80;20986;-81
2022/08/01 08:36:20;;;;;;;3.80;2.10;;;;;;;27.46;44.46;100188.11;1734283;81;20976;-81
2022/08/01 08:38:47;;;;;;;2.60;2.00;;;;;;;27.48;44.47;100191.97;1744270;80;21580;-81
2022/08/01 08:41:13;;;;;;;2.62;1.50;;;;;;;27.47;44.43;100179.98;1745304;80;20979;-81
2022/08/01 08:43:40;;;;;;;3.62;1.62;;;;;;;27.47;44.26;100185.57;1691432;84;21057;-81
2022/08/01 08:46:06;;;;;;;4.75;1.87;;;;;;;27.47;44.08;100183.33;1758266;80;21125;-81
2022/08/01 08:48:34;;;;;;;5.65;1.87;;;;;;;27.47;44.04;100177.19;1758381;81;21027;-81
2022/08/01 08:51:00;;;;;;;2.37;1.70;;;;;;;27.48;44.08;100184.98;1728193;81;21091;-81
2022/08/01 08:53:27;;;;;;;4.72;1.80;;;;;;;27.48;44.07;100184.98;1757789;80;21035;-80
2022/08/01 08:55:55;;;;;;;3.50;1.60;;;;;;;27.49;44.03;100178.22;1757693;80;21412;-80
2022/08/01 08:58:21;;;;;;;2.95;2.02;;;;;;;27.49;44.00;100181.02;1756935;81;21833;-81
2022/08/01 09:00:48;;;;;;;3.35;1.98;;;;;;;27.50;43.94;100181.20;1757746;80;21065;-81
2022/08/01 09:03:14;;;;;;;3.12;1.75;;;;;;;27.51;43.99;100181.42;1757292;80;21073;-81
2022/08/01 09:05:41;;;;;;;3.40;1.80;;;;;;;27.52;44.01;100182.45;1756948;80;21071;-81
2022/08/01 09:08:08;;;;;;;5.00;1.90;;;;;;;27.53;44.00;100189.66;1757441;80;21117;-81
2022/08/01 09:10:34;;;;;;;4.37;1.80;;;;;;;27.56;44.05;100192.27;1745261;81;21184;-80
2022/08/01 09:13:13;;;;;;;2.65;1.85;;;;;;;27.55;44.04;100188.67;1743302;82;21060;-80
2022/08/01 09:15:58;;;;;;;2.08;1.70;;;;;;;27.55;43.98;100199.84;1743457;80;21112;-81
2022/08/01 09:18:35;;;;;;;2.77;1.60;;;;;;;27.53;43.94;100188.26;1743160;80;21065;-81
2022/08/01 09:21:22;;;;;;;3.10;1.95;;;;;;;27.53;43.93;100207.01;1743605;80;21104;-81
2022/08/01 09:23:52;;;;;;;3.15;1.82;;;;;;;27.51;43.92;100200.39;1743439;82;21889;-81
2022/08/01 09:26:33;;;;;;;2.02;1.67;;;;;;;27.52;43.87;100202.01;1743188;82;21030;-82
2022/08/01 09:29:04;;;;;;;3.30;1.82;;;;;;;27.51;43.81;100198.99;1743477;82;21052;-81
2022/08/01 09:31:46;;;;;;;3.40;1.95;;;;;;;27.52;43.80;100197.01;1743773;82;21065;-81
2022/08/01 09:34:11;;;;;;;2.60;1.98;;;;;;;27.52;43.82;100194.22;1742676;81;21085;-81
2022/08/01 09:36:51;;;;;;;6.15;2.10;;;;;;;27.53;43.92;100200.02;1743319;80;21157;-81
2022/08/01 09:39:16;;;;;;;2.08;1.70;;;;;;;27.54;43.91;100191.86;1743327;82;21058;-80
2022/08/01 09:41:43;;;;;;;2.62;1.90;;;;;;;27.55;43.88;100199.84;1743756;80;21036;-81
2022/08/01 09:44:09;;;;;;;2.15;1.57;;;;;;;27.56;43.86;100204.84;1743802;82;21563;-81
2022/08/01 09:46:36;;;;;;;4.50;2.10;;;;;;;27.55;43.78;100197.64;1752235;81;21062;-81
2022/08/01 09:49:04;;;;;;;2.80;2.00;;;;;;;27.55;43.79;100210.21;1758608;81;21850;-81
2022/08/01 09:51:38;;;;;;;2.50;1.90;;;;;;;27.56;43.90;100204.84;1758590;80;21103;-80
2022/08/01 09:54:06;;;;;;;4.08;2.15;;;;;;;27.58;43.89;100204.66;1758244;80;20999;-81
2022/08/01 09:56:45;;;;;;;4.25;1.87;;;;;;;27.59;43.95;100204.89;1727816;81;21137;-81
2022/08/01 09:59:11;;;;;;;3.33;2.17;;;;;;;27.58;44.02;100194.88;1756942;80;21082;-81
2022/08/01 10:01:48;;;;;;;3.83;2.00;;;;;;;27.59;44.09;100199.30;1757306;80;20981;-81
2022/08/01 10:04:22;;;;;;;2.33;2.02;;;;;;;27.59;44.15;100196.50;1757322;80;21043;-81
2022/08/01 10:06:53;;;;;;;2.42;1.80;;;;;;;27.57;44.18;100201.68;1757842;80;21074;-82
2022/08/01 10:09:35;;;;;;;3.15;2.20;;;;;;;27.57;44.21;100207.86;1746424;80;21099;-83
2022/08/01 10:12:01;;;;;;;3.10;2.10;;;;;;;27.57;44.22;100205.88;1707380;82;27154;-84
2022/08/01 10:14:33;;;;;;;2.40;1.70;;;;;;;27.56;44.28;100207.64;1707374;84;21942;-84
2022/08/01 10:17:00;;;;;;;3.55;1.95;;;;;;;27.57;44.29;100206.46;1707827;82;21111;-84
2022/08/01 10:19:29;;;;;;;2.75;1.90;;;;;;;27.56;44.34;100211.24;1703015;82;21657;-83
2022/08/01 10:21:58;;;;;;;2.08;1.85;;;;;;;27.56;44.36;100204.25;1707442;82;21056;-83
2022/08/01 10:24:29;;;;;;;3.67;1.95;;;;;;;27.56;44.38;100197.27;1710939;82;21496;-83
2022/08/01 10:27:03;;;;;;;2.62;1.90;;;;;;;27.57;44.38;100188.30;1711909;82;21152;-82
2022/08/01 10:29:32;;;;;;;2.50;1.80;;;;;;;27.57;44.41;100189.70;1721577;82;21026;-82
2022/08/01 10:32:06;;;;;;;4.42;1.98;;;;;;;27.58;44.43;100191.31;1721545;82;21033;-83
2022/08/01 10:34:33;;;;;;;2.08;1.87;;;;;;;27.58;44.42;100192.09;1720581;83;21624;-83
2022/08/01 10:37:00;;;;;;;2.83;2.27;;;;;;;27.59;44.42;100192.90;1727719;80;21469;-83
2022/08/01 10:39:30;;;;;;;3.65;1.85;;;;;;;27.60;44.43;100190.33;1751958;81;21315;-82
2022/08/01 10:41:56;;;;;;;4.12;2.08;;;;;;;27.59;44.41;100192.31;1751630;80;21678;-83
2022/08/01 10:44:24;;;;;;;3.25;1.95;;;;;;;27.58;44.40;100188.52;1752201;81;21045;-83
2022/08/01 10:46:55;;;;;;;3.55;2.08;;;;;;;27.59;44.42;100191.50;1752122;80;21117;-82
2022/08/01 10:49:22;;;;;;;2.55;1.85;;;;;;;27.58;44.42;100183.70;1752184;79;21552;-83
2022/08/01 10:51:49;;;;;;;4.78;2.05;;;;;;;27.60;44.42;100192.53;1752099;80;21658;-83
2022/08/01 10:54:15;;;;;;;3.33;2.08;;;;;;;27.61;44.45;100192.75;1751596;80;21006;-83
2022/08/01 10:56:49;;;;;;;3.17;1.98;;;;;;;27.63;44.47;100187.56;1751453;80;21061;-83
2022/08/01 10:59:28;;;;;;;4.00;2.33;;;;;;;27.64;44.45;100189.77;1750816;80;21050;-83
2022/08/01 11:01:59;;;;;;;2.22;1.87;;;;;;;27.65;44.45;100191.39;1751616;81;21046;-83
2022/08/01 11:04:43;;;;;;;3.17;2.00;;;;;;;27.65;44.44;100189.41;1751768;80;21097;-82
2022/08/01 11:07:22;;;;;;;2.45;1.80;;;;;;;27.65;44.43;100186.61;1751924;80;21550;-83
2022/08/01 11:09:49;;;;;;;4.70;2.10;;;;;;;27.64;44.38;100186.98;1770074;80;21615;-82
2022/08/01 11:12:17;;;;;;;2.37;1.82;;;;;;;27.64;44.43;100184.19;1752121;79;21536;-83
2022/08/01 11:15:04;;;;;;;2.40;2.00;;;;;;;27.63;44.44;100186.17;1752093;81;21013;-82
2022/08/01 11:17:48;;;;;;;5.47;2.00;;;;;;;27.64;44.44;100186.98;1752089;80;21061;-82
2022/08/01 11:20:24;;;;;;;3.15;2.00;;;;;;;27.63;44.42;100185.36;1752170;80;21486;-82
2022/08/01 11:23:06;;;;;;;3.60;2.10;;;;;;;27.62;44.41;100187.38;1752081;81;21061;-83
2022/08/01 11:25:46;;;;;;;5.30;2.10;;;;;;;27.62;44.41;100181.79;1752409;81;21545;-83
2022/08/01 11:28:21;;;;;;;4.08;2.02;;;;;;;27.63;44.39;100176.98;1752281;80;21057;-83
2022/08/01 11:30:50;;;;;;;3.95;2.30;;;;;;;27.63;44.37;100179.77;1752296;81;21929;-83
2022/08/01 11:33:45;;;;;;;2.27;1.95;;;;;;;27.63;44.39;100183.37;1751768;80;21559;-82
2022/08/01 11:36:17;;;;;;;3.25;2.10;;;;;;;27.64;44.40;100181.39;1752321;80;21114;-83
2022/08/01 11:38:46;;;;;;;2.20;1.90;;;;;;;27.66;44.32;100181.24;1752532;81;21127;-83